createdAt,value
2018-11-21T00:00:17.279Z,20.03
2018-11-21T00:02:45.295Z,20.90
2018-11-21T00:05:13.783Z,21.77
2018-11-21T00:07:42.310Z,20.23
2018-11-21T00:10:11.640Z,19.37
2018-11-21T00:12:40.650Z,18.77
2018-11-21T00:15:10.157Z,20.03
2018-11-21T00:17:38.511Z,18.33
2018-11-21T00:20:08.173Z,18.23
2018-11-21T00:22:35.891Z,18.37
2018-11-21T00:25:04.090Z,22.83
2018-11-21T00:27:31.554Z,20.57
2018-11-21T00:29:59.985Z,20.20
2018-11-21T00:32:28.306Z,21.63
2018-11-21T00:34:56.480Z,20.33
2018-11-21T00:37:24.556Z,20.90
2018-11-21T00:39:53.734Z,20.23
2018-11-21T00:42:21.729Z,20.97
2018-11-21T00:44:49.800Z,19.60
2018-11-21T00:47:18.417Z,18.90
2018-11-21T00:49:46.127Z,19.40
2018-11-21T00:52:14.266Z,20.13
2018-11-21T00:54:42.944Z,21.90
2018-11-21T00:57:11.426Z,21.47
2018-11-21T00:59:39.501Z,20.20
2018-11-21T01:02:08.093Z,20.53
2018-11-21T01:04:36.418Z,20.80
2018-11-21T01:07:04.587Z,21.53
2018-11-21T01:09:33.044Z,22.57
2018-11-21T01:12:01.637Z,19.47
2018-11-21T01:14:29.893Z,22.73
2018-11-21T01:16:58.498Z,21.03
2018-11-21T01:19:26.265Z,21.20
2018-11-21T01:21:54.760Z,20.47
2018-11-21T01:24:22.520Z,22.80
2018-11-21T01:26:50.934Z,23.00
2018-11-21T01:29:19.094Z,23.43
2018-11-21T01:31:47.293Z,22.60
2018-11-21T01:34:15.867Z,24.17
2018-11-21T01:36:44.460Z,23.37
2018-11-21T01:39:12.528Z,23.67
2018-11-21T01:41:40.257Z,23.03
2018-11-21T01:44:09.102Z,24.47
2018-11-21T01:46:37.687Z,25.80
2018-11-21T01:49:05.874Z,24.50
2018-11-21T01:51:34.044Z,23.63
2018-11-21T01:54:02.227Z,24.73
2018-11-21T01:56:30.309Z,23.90
2018-11-21T01:58:58.389Z,23.00
2018-11-21T02:01:26.870Z,22.87
2018-11-21T02:03:55.457Z,23.30
2018-11-21T02:06:23.518Z,24.90
2018-11-21T02:08:50.919Z,26.97
2018-11-21T02:11:19.457Z,25.07
2018-11-21T02:13:47.561Z,26.77
2018-11-21T02:16:15.232Z,24.47
2018-11-21T02:18:43.409Z,24.37
2018-11-21T02:21:11.489Z,26.37
2018-11-21T02:23:40.057Z,24.73
2018-11-21T02:26:08.665Z,24.80
2018-11-21T02:28:37.043Z,25.93
2018-11-21T02:31:05.231Z,25.70
2018-11-21T02:33:32.889Z,26.27
2018-11-21T02:36:00.966Z,26.50
2018-11-21T02:38:29.049Z,26.97
2018-11-21T02:40:57.217Z,23.97
2018-11-21T02:43:25.723Z,25.73
2018-11-21T02:45:54.244Z,25.87
2018-11-21T02:48:22.373Z,24.27
2018-11-21T02:50:50.049Z,24.77
2018-11-21T02:53:18.127Z,25.33
2018-11-21T02:55:45.863Z,23.87
2018-11-21T02:58:14.270Z,24.83
2018-11-21T03:00:42.497Z,25.53
2018-11-21T03:03:11.032Z,24.33
2018-11-21T03:05:39.262Z,23.03
2018-11-21T03:08:07.668Z,25.20
2018-11-21T03:10:36.111Z,24.20
2018-11-21T03:13:05.015Z,25.40
2018-11-21T03:15:33.084Z,24.03
2018-11-21T03:18:01.771Z,24.77
2018-11-21T03:20:30.244Z,27.93
2018-11-21T03:22:58.420Z,26.50
2018-11-21T03:25:26.527Z,25.53
2018-11-21T03:27:55.024Z,27.90
2018-11-21T03:30:23.478Z,29.23
2018-11-21T03:32:52.069Z,27.37
2018-11-21T03:35:20.145Z,28.93
2018-11-21T03:37:48.605Z,28.50
2018-11-21T03:40:17.116Z,25.47
2018-11-21T03:42:44.885Z,26.37
2018-11-21T03:45:13.477Z,26.67
2018-11-21T03:47:41.552Z,23.07
2018-11-21T03:50:11.060Z,27.23
2018-11-21T03:52:39.123Z,25.53
2018-11-21T03:55:07.841Z,24.27
2018-11-21T03:57:35.828Z,25.60
2018-11-21T04:00:04.289Z,24.83
2018-11-21T04:02:31.970Z,25.73
2018-11-21T04:05:00.463Z,25.30
2018-11-21T04:07:28.535Z,23.70
2018-11-21T04:09:57.025Z,23.60
2018-11-21T04:12:25.501Z,26.17
2018-11-21T04:14:53.554Z,24.30
2018-11-21T04:17:21.718Z,24.00
2018-11-21T04:19:49.885Z,24.83
2018-11-21T04:22:17.601Z,26.27
2018-11-21T04:24:45.584Z,23.97
2018-11-21T04:27:14.168Z,24.80
2018-11-21T04:29:41.495Z,22.93
2018-11-21T04:32:09.628Z,23.33
2018-11-21T04:34:37.700Z,24.33
2018-11-21T04:37:05.964Z,23.43
2018-11-21T04:39:34.048Z,21.93
2018-11-21T04:42:02.652Z,23.47
2018-11-21T04:44:31.103Z,24.17
2018-11-21T04:46:59.209Z,23.37
2018-11-21T04:49:26.861Z,21.70
2018-11-21T04:51:54.941Z,21.63
2018-11-21T04:54:23.419Z,22.30
2018-11-21T04:56:52.025Z,21.10
2018-11-21T04:59:20.095Z,21.43
2018-11-21T05:01:48.276Z,24.13
2018-11-21T05:04:16.871Z,22.17
2018-11-21T05:06:45.252Z,21.97
2018-11-21T05:09:13.333Z,24.50
2018-11-21T05:11:41.711Z,23.90
2018-11-21T05:14:10.210Z,24.20
2018-11-21T05:16:38.496Z,24.03
2018-11-21T05:19:06.260Z,24.27
2018-11-21T05:21:34.707Z,23.93
2018-11-21T05:24:02.916Z,24.93
2018-11-21T05:26:31.403Z,24.67
2018-11-21T05:28:59.891Z,26.63
2018-11-21T05:31:27.570Z,27.63
2018-11-21T05:33:56.380Z,29.43
2018-11-21T05:36:24.857Z,34.77
2018-11-21T05:38:53.026Z,27.03
2018-11-21T05:41:20.365Z,29.57
2018-11-21T05:43:48.928Z,26.93
2018-11-21T05:46:17.057Z,29.63
2018-11-21T05:48:45.138Z,28.23
2018-11-21T05:51:13.351Z,29.20
2018-11-21T05:53:41.581Z,28.07
2018-11-21T05:56:09.237Z,30.90
2018-11-21T05:58:37.299Z,33.00
2018-11-21T06:01:05.818Z,27.33
2018-11-21T06:03:33.899Z,30.00
2018-11-21T06:06:02.485Z,30.37
2018-11-21T06:08:30.559Z,29.30
2018-11-21T06:10:58.639Z,28.53
2018-11-21T06:13:27.111Z,27.37
2018-11-21T06:15:54.799Z,26.70
2018-11-21T06:18:23.287Z,29.17
2018-11-21T06:20:50.646Z,25.97
2018-11-21T06:23:18.414Z,25.03
2018-11-21T06:25:46.996Z,24.57
2018-11-21T06:28:15.407Z,24.93
2018-11-21T06:30:43.951Z,24.60
2018-11-21T06:33:12.870Z,24.20
2018-11-21T06:35:40.932Z,24.07
2018-11-21T06:38:09.536Z,22.50
2018-11-21T06:40:37.214Z,20.63
2018-11-21T06:43:05.289Z,22.77
2018-11-21T06:45:33.864Z,20.80
2018-11-21T06:48:01.949Z,21.47
2018-11-21T06:50:29.716Z,19.57
2018-11-21T06:52:58.190Z,21.40
2018-11-21T06:55:25.883Z,18.67
2018-11-21T06:57:54.374Z,20.43
2018-11-21T07:00:22.807Z,18.90
2018-11-21T07:02:50.927Z,20.07
2018-11-21T07:05:18.990Z,19.40
2018-11-21T07:07:47.182Z,19.20
2018-11-21T07:10:16.291Z,18.00
2018-11-21T07:12:44.669Z,20.23
2018-11-21T07:15:12.850Z,24.60
2018-11-21T07:17:41.058Z,27.33
2018-11-21T07:20:11.040Z,21.77
2018-11-21T07:22:39.651Z,21.30
2018-11-21T07:25:19.002Z,21.17
2018-11-21T07:27:46.737Z,22.53
2018-11-21T07:30:15.449Z,42.10
2018-11-21T07:32:44.160Z,43.30
2018-11-21T07:35:17.785Z,38.20
2018-11-21T07:37:40.602Z,70.00
2018-11-21T07:40:09.581Z,45.27
2018-11-21T07:42:38.192Z,65.87
2018-11-21T07:45:08.506Z,86.77
2018-11-21T07:47:36.747Z,79.20
2018-11-21T07:50:06.708Z,71.13
2018-11-21T07:52:35.195Z,61.00
2018-11-21T07:55:03.364Z,51.60
2018-11-21T07:57:33.386Z,23.47
2018-11-21T08:00:40.813Z,18.70
2018-11-21T08:03:08.429Z,22.70
2018-11-21T08:05:44.111Z,26.60
2018-11-21T08:08:25.100Z,21.57
2018-11-21T08:11:12.889Z,17.97
2018-11-21T08:14:00.421Z,17.73
2018-11-21T08:16:47.982Z,19.87
2018-11-21T08:19:35.481Z,17.47
2018-11-21T08:22:22.712Z,17.67
2018-11-21T08:25:09.918Z,27.87
2018-11-21T08:27:48.009Z,18.50
2018-11-21T08:30:16.161Z,17.27
2018-11-21T08:32:44.651Z,18.03
2018-11-21T08:35:12.715Z,19.63
2018-11-21T08:37:41.020Z,20.80
2018-11-21T08:40:09.482Z,17.57
2018-11-21T08:42:37.157Z,18.93
2018-11-21T08:45:06.257Z,16.93
2018-11-21T08:47:34.752Z,16.27
2018-11-21T08:50:02.922Z,16.73
2018-11-21T08:52:31.007Z,17.03
2018-11-21T08:54:59.191Z,18.53
2018-11-21T08:57:27.357Z,16.63
2018-11-21T08:59:55.549Z,19.27
2018-11-21T09:02:24.107Z,15.10
2018-11-21T09:04:52.314Z,14.63
2018-11-21T09:07:20.785Z,14.77
2018-11-21T09:09:48.569Z,20.67
2018-11-21T09:12:16.648Z,26.00
2018-11-21T09:14:44.737Z,25.33
2018-11-21T09:17:12.758Z,18.30
2018-11-21T09:19:40.967Z,17.83
2018-11-21T09:22:09.651Z,14.10
2018-11-21T09:24:38.480Z,17.20
2018-11-21T09:27:06.856Z,23.00
2018-11-21T09:29:35.040Z,15.93
2018-11-21T09:32:03.196Z,20.07
2018-11-21T09:34:30.970Z,21.20
2018-11-21T09:36:59.062Z,17.13
2018-11-21T09:39:27.137Z,25.70
2018-11-21T09:41:54.803Z,21.50
2018-11-21T09:44:23.285Z,32.70
2018-11-21T09:46:50.984Z,23.17
2018-11-21T09:49:19.241Z,20.60
2018-11-21T09:51:47.735Z,15.83
2018-11-21T09:54:15.942Z,16.30
2018-11-21T09:57:08.145Z,16.27
2018-11-21T09:59:57.603Z,14.60
2018-11-21T10:03:08.226Z,24.57
2018-11-21T10:05:37.457Z,27.33
2018-11-21T10:08:43.146Z,29.97
2018-11-21T10:11:12.528Z,21.83
2018-11-21T10:13:40.702Z,14.97
2018-11-21T10:16:08.747Z,15.40
2018-11-21T10:18:37.247Z,13.67
2018-11-21T10:21:06.394Z,14.80
2018-11-21T10:23:34.993Z,14.90
2018-11-21T10:26:02.702Z,14.90
2018-11-21T10:28:30.775Z,15.17
2018-11-21T10:30:58.572Z,14.53
2018-11-21T10:33:26.342Z,13.43
2018-11-21T10:35:55.000Z,14.23
2018-11-21T10:38:23.081Z,15.23
2018-11-21T10:40:51.278Z,14.43
2018-11-21T10:43:19.726Z,14.40
2018-11-21T10:45:47.796Z,13.93
2018-11-21T10:48:15.996Z,14.33
2018-11-21T10:50:44.482Z,14.57
2018-11-21T10:53:12.658Z,14.10
2018-11-21T10:55:41.176Z,13.37
2018-11-21T10:58:09.341Z,14.07
2018-11-21T11:00:56.891Z,15.30
2018-11-21T11:03:30.261Z,13.23
2018-11-21T11:06:17.819Z,13.60
2018-11-21T11:09:04.960Z,13.03
2018-11-21T11:11:52.133Z,13.20
2018-11-21T11:14:38.977Z,12.87
2018-11-21T11:17:25.861Z,16.93
2018-11-21T11:20:13.073Z,14.47
2018-11-21T11:23:00.678Z,14.90
2018-11-21T11:25:48.330Z,13.17
2018-11-21T11:28:35.547Z,14.33
2018-11-21T11:31:23.157Z,13.87
2018-11-21T11:34:10.765Z,14.03
2018-11-21T11:36:58.012Z,14.17
2018-11-21T11:39:45.192Z,12.50
2018-11-21T11:42:32.852Z,14.07
2018-11-21T11:45:16.216Z,16.17
2018-11-21T11:48:03.780Z,14.53
2018-11-21T11:50:51.423Z,14.40
2018-11-21T11:53:39.082Z,13.83
2018-11-21T11:56:26.221Z,14.00
2018-11-21T11:59:13.890Z,13.57
2018-11-21T12:02:01.566Z,14.13
2018-11-21T12:04:49.139Z,14.43
2018-11-21T12:07:28.639Z,13.20
2018-11-21T12:10:16.165Z,13.63
2018-11-21T12:13:03.284Z,13.57
2018-11-21T12:15:50.222Z,16.17
2018-11-21T12:18:37.828Z,14.47
2018-11-21T12:21:25.235Z,13.80
2018-11-21T12:24:12.174Z,14.67
2018-11-21T12:26:59.391Z,13.33
2018-11-21T12:29:46.856Z,12.97
2018-11-21T12:32:39.187Z,15.33
2018-11-21T12:35:21.485Z,14.70
2018-11-21T12:38:09.120Z,13.27
2018-11-21T12:40:56.311Z,13.73
2018-11-21T12:43:43.791Z,13.63
2018-11-21T12:46:31.401Z,15.00
2018-11-21T12:49:18.921Z,13.43
2018-11-21T12:52:06.120Z,12.97
2018-11-21T12:54:53.730Z,14.00
2018-11-21T12:57:41.521Z,13.47
2018-11-21T13:00:29.200Z,15.60
2018-11-21T13:03:16.812Z,19.13
2018-11-21T13:06:04.053Z,15.37
2018-11-21T13:08:51.242Z,14.80
2018-11-21T13:11:38.721Z,14.40
2018-11-21T13:14:25.877Z,13.33
2018-11-21T13:17:13.431Z,13.17
2018-11-21T13:20:00.972Z,13.10
2018-11-21T13:22:48.125Z,12.50
2018-11-21T13:25:35.320Z,13.03
2018-11-21T13:28:22.706Z,12.80
2018-11-21T13:31:09.448Z,13.33
2018-11-21T13:33:57.016Z,16.67
2018-11-21T13:36:44.195Z,15.07
2018-11-21T13:39:32.946Z,13.40
2018-11-21T13:42:20.456Z,13.47
2018-11-21T13:45:08.101Z,13.27
2018-11-21T13:47:57.077Z,14.57
2018-11-21T13:50:44.243Z,13.40
2018-11-21T13:53:33.912Z,14.20
2018-11-21T13:56:02.114Z,13.77
2018-11-21T13:58:30.238Z,12.87
2018-11-21T14:01:00.868Z,12.97
2018-11-21T14:03:29.475Z,12.93
2018-11-21T14:05:57.259Z,13.80
2018-11-21T14:08:25.818Z,15.57
2018-11-21T14:10:54.326Z,13.83
2018-11-21T14:13:22.075Z,13.20
2018-11-21T14:15:50.692Z,14.83
2018-11-21T14:18:18.345Z,15.43
2018-11-21T14:20:46.838Z,14.17
2018-11-21T14:23:15.279Z,14.80
2018-11-21T14:25:43.522Z,15.47
2018-11-21T14:28:11.999Z,14.97
2018-11-21T14:30:40.567Z,15.40
2018-11-21T14:33:08.659Z,19.47
2018-11-21T14:35:37.131Z,16.47
2018-11-21T14:38:04.904Z,16.37
2018-11-21T14:40:33.407Z,14.77
2018-11-21T14:43:01.874Z,18.50
2018-11-21T14:45:30.380Z,16.33
2018-11-21T14:47:59.070Z,17.40
2018-11-21T14:50:29.313Z,15.10
2018-11-21T14:52:57.797Z,14.83
2018-11-21T14:55:25.822Z,15.53
2018-11-21T14:57:54.423Z,13.20
2018-11-21T15:00:23.152Z,14.20
2018-11-21T15:02:51.706Z,13.47
2018-11-21T15:05:20.193Z,14.67
2018-11-21T15:07:48.374Z,12.60
2018-11-21T15:10:16.423Z,12.17
2018-11-21T15:12:46.855Z,11.73
2018-11-21T15:15:16.603Z,13.37
2018-11-21T15:17:44.816Z,13.70
2018-11-21T15:20:32.260Z,13.47
2018-11-21T15:23:00.389Z,14.13
2018-11-21T15:25:28.847Z,13.73
2018-11-21T15:27:58.164Z,14.53
2018-11-21T15:30:27.292Z,13.17
2018-11-21T15:32:55.466Z,14.33
2018-11-21T15:35:24.047Z,13.70
2018-11-21T15:37:52.337Z,13.67
2018-11-21T15:40:21.605Z,13.97
2018-11-21T15:42:50.218Z,13.93
2018-11-21T15:45:19.431Z,14.23
2018-11-21T15:47:51.183Z,13.83
2018-11-21T15:50:20.192Z,13.77
2018-11-21T15:52:52.689Z,14.87
2018-11-21T15:55:17.881Z,14.03
2018-11-21T15:57:46.071Z,13.63
2018-11-21T16:00:34.791Z,13.30
2018-11-21T16:03:06.276Z,14.70
2018-11-21T16:05:34.342Z,13.13
2018-11-21T16:08:03.572Z,13.13
2018-11-21T16:10:49.997Z,13.93
2018-11-21T16:13:18.522Z,14.33
2018-11-21T16:15:50.953Z,14.70
2018-11-21T16:18:19.907Z,13.90
2018-11-21T16:20:47.807Z,14.03
2018-11-21T16:23:15.542Z,13.07
2018-11-21T16:25:44.118Z,15.63
2018-11-21T16:28:12.307Z,14.23
2018-11-21T16:30:40.392Z,14.77
2018-11-21T16:33:08.568Z,14.77
2018-11-21T16:35:36.833Z,15.23
2018-11-21T16:38:05.643Z,14.90
2018-11-21T16:40:34.197Z,14.90
2018-11-21T16:43:01.897Z,17.17
2018-11-21T16:45:31.812Z,16.43
2018-11-21T16:47:59.426Z,16.37
2018-11-21T16:50:27.547Z,17.33
2018-11-21T16:52:55.702Z,17.57
2018-11-21T16:55:25.421Z,16.33
2018-11-21T16:57:54.537Z,15.73
2018-11-21T17:00:23.712Z,16.43
2018-11-21T17:02:51.932Z,14.03
2018-11-21T17:05:21.473Z,17.13
2018-11-21T17:07:48.708Z,17.07
2018-11-21T17:10:17.703Z,16.57
2018-11-21T17:12:46.733Z,17.40
2018-11-21T17:15:16.373Z,16.40
2018-11-21T17:18:03.515Z,17.10
2018-11-21T17:20:50.714Z,15.80
2018-11-21T17:23:18.948Z,17.70
2018-11-21T17:25:47.218Z,17.80
2018-11-21T17:28:15.689Z,17.77
2018-11-21T17:30:44.387Z,17.83
2018-11-21T17:33:12.868Z,16.57
2018-11-21T17:35:41.354Z,16.17
2018-11-21T17:38:09.538Z,15.27
2018-11-21T17:40:38.949Z,17.27
2018-11-21T17:43:07.530Z,17.20
2018-11-21T17:45:35.604Z,19.93
2018-11-21T17:48:04.299Z,19.47
2018-11-21T17:50:32.171Z,18.77
2018-11-21T17:53:01.482Z,18.30
2018-11-21T17:55:30.866Z,16.77
2018-11-21T17:57:59.079Z,17.90
2018-11-21T18:00:29.005Z,17.40
2018-11-21T18:02:57.069Z,17.30
2018-11-21T18:05:44.401Z,18.60
2018-11-21T18:08:12.862Z,18.63
2018-11-21T18:10:41.938Z,17.87
2018-11-21T18:13:10.302Z,19.13
2018-11-21T18:15:38.548Z,19.73
2018-11-21T18:18:07.243Z,17.40
2018-11-21T18:20:35.848Z,19.10
2018-11-21T18:23:04.091Z,17.87
2018-11-21T18:25:34.138Z,20.60
2018-11-21T18:28:02.742Z,19.17
2018-11-21T18:30:30.878Z,21.77
2018-11-21T18:32:59.155Z,19.83
2018-11-21T18:35:27.333Z,21.00
2018-11-21T18:37:55.771Z,18.90
2018-11-21T18:40:25.235Z,15.93
2018-11-21T18:42:53.930Z,16.00
2018-11-21T18:45:23.648Z,16.27
2018-11-21T18:47:52.199Z,16.97
2018-11-21T18:50:21.030Z,16.47
2018-11-21T18:52:50.327Z,16.83
2018-11-21T18:55:21.341Z,18.77
2018-11-21T18:58:27.925Z,21.50
2018-11-21T19:00:56.311Z,19.90
2018-11-21T19:03:24.310Z,18.60
2018-11-21T19:06:11.549Z,19.47
2018-11-21T19:08:40.031Z,22.37
2018-11-21T19:11:08.674Z,18.30
2018-11-21T19:13:37.180Z,17.63
2018-11-21T19:16:05.727Z,17.60
2018-11-21T19:18:33.547Z,16.40
2018-11-21T19:21:01.954Z,19.80
2018-11-21T19:23:29.591Z,22.47
2018-11-21T19:25:57.782Z,21.57
2018-11-21T19:28:25.547Z,22.13
2018-11-21T19:30:53.713Z,20.10
2018-11-21T19:33:28.343Z,20.23
2018-11-21T19:35:56.117Z,21.43
2018-11-21T19:38:24.311Z,36.00
2018-11-21T19:40:52.780Z,26.07
2018-11-21T19:43:21.233Z,27.80
2018-11-21T19:45:49.459Z,23.53
2018-11-21T19:48:18.024Z,22.37
2018-11-21T19:50:45.841Z,44.27
2018-11-21T19:53:14.109Z,15.13
2018-11-21T19:55:42.268Z,18.97
2018-11-21T19:58:10.432Z,21.70
2018-11-21T20:00:38.643Z,27.70
2018-11-21T20:03:07.437Z,21.57
2018-11-21T20:05:35.695Z,41.90
2018-11-21T20:08:03.885Z,33.17
2018-11-21T20:10:31.655Z,16.30
2018-11-21T20:13:00.134Z,31.53
2018-11-21T20:15:28.435Z,17.17
2018-11-21T20:18:00.080Z,21.73
2018-11-21T20:20:27.922Z,19.33
2018-11-21T20:22:56.024Z,18.10
2018-11-21T20:25:24.627Z,21.53
2018-11-21T20:27:53.038Z,16.73
2018-11-21T20:30:40.284Z,15.37
2018-11-21T20:33:08.868Z,15.57
2018-11-21T20:35:37.796Z,15.77
2018-11-21T20:38:06.202Z,16.60
2018-11-21T20:40:53.313Z,18.40
2018-11-21T20:43:20.658Z,16.47
2018-11-21T20:45:49.185Z,16.03
2018-11-21T20:48:17.047Z,14.33
2018-11-21T20:50:45.617Z,14.17
2018-11-21T20:53:13.724Z,14.77
2018-11-21T20:55:42.092Z,13.90
2018-11-21T20:58:10.245Z,14.83
2018-11-21T21:00:38.028Z,12.20
2018-11-21T21:05:33.969Z,14.90
2018-11-21T21:08:02.039Z,12.57
2018-11-21T21:10:31.931Z,12.70
2018-11-21T21:13:00.291Z,13.43
2018-11-21T21:15:28.753Z,13.03
2018-11-21T21:17:57.443Z,13.07
2018-11-21T21:20:26.604Z,12.77
2018-11-21T21:22:56.134Z,12.03
2018-11-21T21:25:25.792Z,13.03
2018-11-21T21:27:54.398Z,13.10
2018-11-21T21:30:41.597Z,12.47
2018-11-21T21:33:10.058Z,12.60
2018-11-21T21:35:38.547Z,13.20
2018-11-21T21:38:06.727Z,12.57
2018-11-21T21:40:34.980Z,13.03
2018-11-21T21:43:03.099Z,18.50
2018-11-21T21:45:31.547Z,13.70
2018-11-21T21:47:59.741Z,15.40
2018-11-21T21:50:29.445Z,14.47
2018-11-21T21:52:57.440Z,13.30
2018-11-21T21:55:26.529Z,14.03
2018-11-21T21:57:54.514Z,14.97
2018-11-21T22:00:23.869Z,13.97
2018-11-21T22:02:52.623Z,13.77
2018-11-21T22:05:20.518Z,12.93
2018-11-21T22:07:48.265Z,12.90
2018-11-21T22:10:17.747Z,12.67
2018-11-21T22:12:46.342Z,13.40
2018-11-21T22:15:33.930Z,12.33
2018-11-21T22:18:04.279Z,11.80
2018-11-21T22:20:32.753Z,12.87
2018-11-21T22:23:01.174Z,18.07
2018-11-21T22:25:29.454Z,18.10
2018-11-21T22:27:57.434Z,14.43
2018-11-21T22:30:24.883Z,13.60
2018-11-21T22:32:53.592Z,12.80
2018-11-21T22:35:25.022Z,13.23
2018-11-21T22:37:51.455Z,19.70
2018-11-21T22:40:19.374Z,38.70
2018-11-21T22:42:47.519Z,91.60
2018-11-21T22:45:19.289Z,111.63
2018-11-21T22:47:47.035Z,43.53
2018-11-21T22:50:33.529Z,33.13
2018-11-21T22:53:01.118Z,17.63
2018-11-21T22:55:29.189Z,13.87
2018-11-21T22:57:57.660Z,12.03
2018-11-21T23:00:44.896Z,15.43
2018-11-21T23:03:14.380Z,14.13
2018-11-21T23:05:42.472Z,12.73
2018-11-21T23:08:09.874Z,13.77
2018-11-21T23:10:37.871Z,14.17
2018-11-21T23:13:05.301Z,13.63
2018-11-21T23:15:33.763Z,12.33
2018-11-21T23:18:01.866Z,12.43
2018-11-21T23:20:30.023Z,14.00
2018-11-21T23:22:57.394Z,12.53
2018-11-21T23:25:25.435Z,12.80
2018-11-21T23:27:53.454Z,14.33
2018-11-21T23:30:21.940Z,12.50
2018-11-21T23:32:49.645Z,14.90
2018-11-21T23:35:18.189Z,14.33
2018-11-21T23:37:46.382Z,18.13
2018-11-21T23:40:15.699Z,15.97
2018-11-21T23:43:02.797Z,13.80
2018-11-21T23:45:30.779Z,20.30
2018-11-21T23:47:58.930Z,15.07
2018-11-21T23:50:27.059Z,16.10
2018-11-21T23:52:54.484Z,17.40
2018-11-21T23:55:22.146Z,14.27
2018-11-21T23:57:50.349Z,16.17
